Time;durP1;ratioP1;P1;durP2;ratioP2;P2;SDS_P1;SDS_P2;PMS_P1;PMS_P2;Temp;Humidity;BMP_temperature;BMP_pressure;BME280_temperature;BME280_humidity;BME280_pressure;Samples;Min_cycle;Max_cycle;Signal;HPM_P1;HPM_P2
2024/01/11 00:02:02;;;;;;;84.27;32.13;;;;;;;;;;5073669;28;20297;-85
2024/01/11 00:04:30;;;;;;;84.90;30.93;;;;;;;;;;5074916;28;20192;-85
2024/01/11 00:06:57;;;;;;;84.70;31.80;;;;;;;;;;5075079;28;20279;-84
2024/01/11 00:09:24;;;;;;;88.13;32.53;;;;;;;;;;5057238;28;20656;-84
2024/01/11 00:11:51;;;;;;;82.67;31.53;;;;;;;;;;5074944;28;20196;-84
2024/01/11 00:14:19;;;;;;;76.80;29.90;;;;;;;;;;5075043;28;20250;-84
2024/01/11 00:16:46;;;;;;;95.27;31.53;;;;;;;;;;5074882;28;20284;-84
2024/01/11 00:19:13;;;;;;;87.07;32.57;;;;;;;;;;5072786;28;20196;-84
2024/01/11 00:21:40;;;;;;;81.63;27.93;;;;;;;;;;5077164;28;20196;-84
2024/01/11 00:24:08;;;;;;;80.60;32.40;;;;;;;;;;5076050;28;20191;-83
2024/01/11 00:26:36;;;;;;;88.10;33.27;;;;;;;;;;5073343;28;20195;-84
2024/01/11 00:29:04;;;;;;;98.63;33.27;;;;;;;;;;5074479;28;20199;-84
2024/01/11 00:31:31;;;;;;;82.53;30.80;;;;;;;;;;5075005;28;20226;-84
2024/01/11 00:33:59;;;;;;;84.87;31.47;;;;;;;;;;5074504;28;20195;-84
2024/01/11 00:36:28;;;;;;;79.60;30.87;;;;;;;;;;5072867;28;20239;-83
2024/01/11 00:38:55;;;;;;;83.97;30.73;;;;;;;;;;5074593;28;20199;-86
2024/01/11 00:41:22;;;;;;;85.73;31.33;;;;;;;;;;5074087;28;20257;-86
2024/01/11 00:43:49;;;;;;;82.70;29.43;;;;;;;;;;5073896;28;20273;-86
2024/01/11 00:46:17;;;;;;;85.40;31.77;;;;;;;;;;5073634;28;20286;-86
2024/01/11 00:48:44;;;;;;;100.67;31.90;;;;;;;;;;5073185;28;20695;-85
2024/01/11 00:51:11;;;;;;;77.50;30.30;;;;;;;;;;5072584;28;20313;-85
2024/01/11 00:53:38;;;;;;;73.57;28.60;;;;;;;;;;5074110;28;20196;-85
2024/01/11 00:56:05;;;;;;;76.93;29.93;;;;;;;;;;5073461;28;20203;-83
2024/01/11 00:58:33;;;;;;;77.70;30.30;;;;;;;;;;5073771;28;20260;-83
2024/01/11 01:01:00;;;;;;;86.43;31.40;;;;;;;;;;5073478;28;20203;-83
2024/01/11 01:03:27;;;;;;;74.13;29.70;;;;;;;;;;5073107;28;20598;-83
2024/01/11 01:05:54;;;;;;;72.97;29.67;;;;;;;;;;5072127;28;20214;-81
2024/01/11 01:08:21;;;;;;;73.43;28.80;;;;;;;;;;5072872;28;20206;-81
2024/01/11 01:10:48;;;;;;;87.70;31.83;;;;;;;;;;5073160;28;20256;-81
2024/01/11 01:13:16;;;;;;;91.53;30.17;;;;;;;;;;5073006;28;20249;-82
2024/01/11 01:15:43;;;;;;;79.97;29.63;;;;;;;;;;5073313;28;20203;-84
2024/01/11 01:18:10;;;;;;;77.33;29.83;;;;;;;;;;5073597;28;20192;-82
2024/01/11 01:20:37;;;;;;;78.90;28.97;;;;;;;;;;5072904;28;20282;-82
2024/01/11 01:23:04;;;;;;;74.33;29.23;;;;;;;;;;5075877;28;20707;-82
2024/01/11 01:25:32;;;;;;;71.73;28.60;;;;;;;;;;5073652;28;20203;-82
2024/01/11 01:28:00;;;;;;;76.73;29.50;;;;;;;;;;5073017;28;20199;-82
2024/01/11 01:30:27;;;;;;;88.57;28.93;;;;;;;;;;5078989;28;20191;-81
2024/01/11 01:32:55;;;;;;;79.43;30.03;;;;;;;;;;5080534;28;20648;-81
2024/01/11 01:35:23;;;;;;;82.10;28.77;;;;;;;;;;5078899;28;20274;-84
2024/01/11 01:37:50;;;;;;;80.30;29.87;;;;;;;;;;5080487;28;20191;-84
2024/01/11 01:40:17;;;;;;;80.60;30.87;;;;;;;;;;5080167;28;20202;-84
2024/01/11 01:42:45;;;;;;;81.43;29.20;;;;;;;;;;5078733;28;20288;-84
2024/01/11 01:45:14;;;;;;;74.17;28.83;;;;;;;;;;5062600;28;20210;-84
2024/01/11 01:47:42;;;;;;;83.67;28.63;;;;;;;;;;5078967;28;20199;-84
2024/01/11 01:50:10;;;;;;;78.27;30.33;;;;;;;;;;5079331;28;20191;-84
2024/01/11 01:52:39;;;;;;;76.77;29.00;;;;;;;;;;5080453;28;20245;-85
2024/01/11 01:55:06;;;;;;;83.33;29.80;;;;;;;;;;5080694;28;20235;-84
2024/01/11 01:57:34;;;;;;;72.53;27.17;;;;;;;;;;5079317;28;20199;-84
2024/01/11 02:00:02;;;;;;;88.47;30.20;;;;;;;;;;5078612;28;20226;-84
2024/01/11 02:02:39;;;;;;;78.50;28.93;;;;;;;;;;5077278;28;20256;-84
2024/01/11 02:05:07;;;;;;;110.60;33.10;;;;;;;;;;5076945;28;20253;-84
2024/01/11 02:07:34;;;;;;;71.63;25.03;;;;;;;;;;5078318;28;20233;-84
2024/01/11 02:10:02;;;;;;;78.77;26.70;;;;;;;;;;5079376;28;20191;-84
2024/01/11 02:12:29;;;;;;;63.43;25.47;;;;;;;;;;5079177;28;20191;-84
2024/01/11 02:14:56;;;;;;;75.27;25.30;;;;;;;;;;5062620;28;20195;-84
2024/01/11 02:17:24;;;;;;;75.73;25.60;;;;;;;;;;5078733;28;20192;-84
2024/01/11 02:19:51;;;;;;;57.67;22.20;;;;;;;;;;5078793;28;20248;-83
2024/01/11 02:22:29;;;;;;;63.77;24.17;;;;;;;;;;5078648;28;20194;-84
2024/01/11 02:24:58;;;;;;;71.87;26.67;;;;;;;;;;5078106;28;20656;-82
2024/01/11 02:27:25;;;;;;;85.57;27.40;;;;;;;;;;5079756;28;20195;-84
2024/01/11 02:29:52;;;;;;;70.87;26.67;;;;;;;;;;5078656;28;20274;-83
2024/01/11 02:32:19;;;;;;;66.20;24.03;;;;;;;;;;5061882;28;20195;-83
2024/01/11 02:34:47;;;;;;;57.77;23.07;;;;;;;;;;5079457;28;20250;-83
2024/01/11 02:37:14;;;;;;;75.20;25.23;;;;;;;;;;5078754;28;20180;-84
2024/01/11 02:39:41;;;;;;;73.50;27.10;;;;;;;;;;5078191;28;20195;-81
2024/01/11 02:42:08;;;;;;;69.23;21.93;;;;;;;;;;5074040;28;20191;-81
2024/01/11 02:44:36;;;;;;;63.50;23.30;;;;;;;;;;5076319;28;20227;-85
2024/01/11 02:47:04;;;;;;;78.10;26.10;;;;;;;;;;5078626;28;20199;-84
2024/01/11 02:49:31;;;;;;;70.57;26.80;;;;;;;;;;5075688;28;20199;-85
2024/01/11 02:51:58;;;;;;;62.60;25.03;;;;;;;;;;5075942;28;20272;-82
2024/01/11 02:54:25;;;;;;;60.07;21.10;;;;;;;;;;5075575;28;20214;-81
2024/01/11 02:56:52;;;;;;;49.57;21.03;;;;;;;;;;5075475;28;20196;-82
2024/01/11 02:59:19;;;;;;;64.77;25.77;;;;;;;;;;5074246;28;20198;-81
2024/01/11 03:01:47;;;;;;;58.53;23.57;;;;;;;;;;5075321;28;20199;-81
2024/01/11 03:04:14;;;;;;;44.50;17.60;;;;;;;;;;5074847;28;20227;-82
2024/01/11 03:06:41;;;;;;;58.37;23.23;;;;;;;;;;5075126;28;20195;-82
2024/01/11 03:09:08;;;;;;;65.03;24.83;;;;;;;;;;5074730;28;20200;-81
2024/01/11 03:11:37;;;;;;;69.43;24.03;;;;;;;;;;5075503;28;20510;-81
2024/01/11 03:14:04;;;;;;;68.37;23.07;;;;;;;;;;5074316;28;20203;-81
2024/01/11 03:16:31;;;;;;;61.83;22.33;;;;;;;;;;5074324;28;20256;-81
2024/01/11 03:18:58;;;;;;;57.47;21.20;;;;;;;;;;5074573;28;20208;-81
2024/01/11 03:21:26;;;;;;;53.63;22.57;;;;;;;;;;5074997;28;20214;-85
2024/01/11 03:23:53;;;;;;;73.40;26.47;;;;;;;;;;5075744;28;20223;-85
2024/01/11 03:26:20;;;;;;;59.07;24.53;;;;;;;;;;5075920;28;20210;-85
2024/01/11 03:28:47;;;;;;;73.17;24.97;;;;;;;;;;5075214;28;20191;-82
2024/01/11 03:31:14;;;;;;;74.73;25.50;;;;;;;;;;5074538;28;20200;-83
2024/01/11 03:33:41;;;;;;;68.23;24.37;;;;;;;;;;5075044;28;20620;-84
2024/01/11 03:36:09;;;;;;;67.60;26.10;;;;;;;;;;5075273;28;20231;-83
2024/01/11 03:38:37;;;;;;;65.43;26.83;;;;;;;;;;5075703;28;20249;-84
2024/01/11 03:41:09;;;;;;;62.70;24.40;;;;;;;;;;5074039;28;20195;-83
2024/01/11 03:43:37;;;;;;;52.97;21.50;;;;;;;;;;5075102;28;20916;-83
2024/01/11 03:46:04;;;;;;;53.03;20.60;;;;;;;;;;5075000;28;20200;-83
2024/01/11 03:48:31;;;;;;;44.17;19.67;;;;;;;;;;5075929;28;20206;-84
2024/01/11 03:50:59;;;;;;;53.13;22.27;;;;;;;;;;5075340;28;20207;-83
2024/01/11 03:53:26;;;;;;;58.87;24.73;;;;;;;;;;5073617;28;20282;-84
2024/01/11 03:55:53;;;;;;;52.83;23.77;;;;;;;;;;5074978;28;20200;-84
2024/01/11 03:58:20;;;;;;;76.10;27.50;;;;;;;;;;5074929;28;20193;-84
2024/01/11 04:00:47;;;;;;;76.63;28.30;;;;;;;;;;5074878;28;20195;-83
2024/01/11 04:03:14;;;;;;;69.80;25.27;;;;;;;;;;5074326;28;20227;-82
2024/01/11 04:05:42;;;;;;;62.13;22.83;;;;;;;;;;5072777;28;20191;-81
2024/01/11 04:08:09;;;;;;;49.90;22.27;;;;;;;;;;5073256;28;20610;-81
2024/01/11 04:10:36;;;;;;;59.07;23.00;;;;;;;;;;5073734;28;20199;-81
2024/01/11 04:13:04;;;;;;;52.17;23.40;;;;;;;;;;5073490;28;20272;-82
2024/01/11 04:15:31;;;;;;;62.10;26.30;;;;;;;;;;5074470;28;20195;-81
2024/01/11 04:17:58;;;;;;;71.93;24.23;;;;;;;;;;5075350;28;20203;-86
2024/01/11 04:20:25;;;;;;;69.63;29.03;;;;;;;;;;5074706;28;20210;-86
2024/01/11 04:22:52;;;;;;;57.83;25.43;;;;;;;;;;5074864;28;20286;-85
2024/01/11 04:25:21;;;;;;;59.73;24.60;;;;;;;;;;5074405;28;20195;-85
2024/01/11 04:27:48;;;;;;;55.67;24.13;;;;;;;;;;5074083;28;20257;-84
2024/01/11 04:30:15;;;;;;;53.23;22.00;;;;;;;;;;5074434;28;20620;-84
2024/01/11 04:32:42;;;;;;;71.43;28.43;;;;;;;;;;5074243;28;20575;-81
2024/01/11 04:35:10;;;;;;;84.23;30.33;;;;;;;;;;5073112;28;20231;-88
2024/01/11 04:37:37;;;;;;;58.17;23.97;;;;;;;;;;5057243;28;20191;-88
2024/01/11 04:40:07;;;;;;;75.43;29.37;;;;;;;;;;5075341;28;20195;-87
2024/01/11 04:42:34;;;;;;;77.13;30.27;;;;;;;;;;5075724;28;20196;-88
2024/01/11 04:45:02;;;;;;;59.37;24.63;;;;;;;;;;5076207;28;20216;-84
2024/01/11 04:47:29;;;;;;;53.83;23.33;;;;;;;;;;5073324;28;20210;-84
2024/01/11 04:49:56;;;;;;;60.47;23.20;;;;;;;;;;5056885;28;20212;-84
2024/01/11 04:52:23;;;;;;;77.47;28.70;;;;;;;;;;5053880;28;20206;-84
2024/01/11 04:54:51;;;;;;;67.93;25.83;;;;;;;;;;5055291;28;20193;-84
2024/01/11 04:57:18;;;;;;;57.93;24.23;;;;;;;;;;5058970;28;20195;-84
2024/01/11 04:59:45;;;;;;;74.63;28.80;;;;;;;;;;5075315;28;20198;-84
2024/01/11 05:02:12;;;;;;;87.30;32.07;;;;;;;;;;5074194;28;20658;-85
2024/01/11 05:04:39;;;;;;;81.47;32.43;;;;;;;;;;5071544;28;20219;-84
2024/01/11 05:07:06;;;;;;;61.17;26.37;;;;;;;;;;5072412;28;20276;-83
2024/01/11 05:09:34;;;;;;;68.90;26.60;;;;;;;;;;5073312;28;20235;-83
2024/01/11 05:12:01;;;;;;;65.17;23.97;;;;;;;;;;5074946;28;20216;-83
2024/01/11 05:14:28;;;;;;;71.53;24.87;;;;;;;;;;5060976;28;20245;-83
2024/01/11 05:16:55;;;;;;;83.60;28.37;;;;;;;;;;5074118;28;20219;-83
2024/01/11 05:19:23;;;;;;;69.13;28.80;;;;;;;;;;5071923;28;20242;-83
2024/01/11 05:21:50;;;;;;;82.73;28.57;;;;;;;;;;5073412;28;20554;-77
2024/01/11 05:24:17;;;;;;;94.23;33.83;;;;;;;;;;5072466;28;20247;-83
2024/01/11 05:26:45;;;;;;;83.13;31.03;;;;;;;;;;5055725;28;20692;-82
2024/01/11 05:29:13;;;;;;;80.57;31.33;;;;;;;;;;5073807;28;20246;-83
2024/01/11 05:31:40;;;;;;;83.47;30.63;;;;;;;;;;5074303;28;20229;-83
2024/01/11 05:34:08;;;;;;;77.67;31.57;;;;;;;;;;5072107;28;20235;-84
2024/01/11 05:36:35;;;;;;;72.33;29.80;;;;;;;;;;5075594;28;20242;-84
2024/01/11 05:39:03;;;;;;;83.27;30.13;;;;;;;;;;5077286;28;20592;-83
2024/01/11 05:41:30;;;;;;;76.47;28.67;;;;;;;;;;5055968;28;20219;-83
2024/01/11 05:43:57;;;;;;;90.77;31.17;;;;;;;;;;5070889;28;20686;-82
2024/01/11 05:46:24;;;;;;;87.17;32.90;;;;;;;;;;5072066;28;20273;-82
2024/01/11 05:48:52;;;;;;;92.23;35.73;;;;;;;;;;5070853;28;20219;-82
2024/01/11 05:51:19;;;;;;;84.77;33.57;;;;;;;;;;5070208;28;20224;-82
2024/01/11 05:53:46;;;;;;;90.63;33.53;;;;;;;;;;5071374;28;20672;-82
2024/01/11 05:56:14;;;;;;;96.60;39.77;;;;;;;;;;5070746;28;20238;-82
2024/01/11 05:58:41;;;;;;;88.13;32.17;;;;;;;;;;5071209;28;20219;-83
2024/01/11 06:01:08;;;;;;;88.60;34.13;;;;;;;;;;5070794;28;20243;-82
2024/01/11 06:03:37;;;;;;;87.87;34.93;;;;;;;;;;5070830;28;20219;-82
2024/01/11 06:06:05;;;;;;;78.37;32.77;;;;;;;;;;5071497;28;20259;-81
2024/01/11 06:08:32;;;;;;;95.77;35.30;;;;;;;;;;5071016;28;20219;-81
2024/01/11 06:10:59;;;;;;;73.27;28.13;;;;;;;;;;5072405;28;20273;-83
2024/01/11 06:13:27;;;;;;;95.97;35.70;;;;;;;;;;5074039;28;20222;-85
2024/01/11 06:15:54;;;;;;;85.13;30.90;;;;;;;;;;5079370;28;20712;-82
2024/01/11 06:18:21;;;;;;;90.17;31.70;;;;;;;;;;5076201;28;20234;-82
2024/01/11 06:20:48;;;;;;;121.17;47.83;;;;;;;;;;5076410;28;20931;-82
2024/01/11 06:23:16;;;;;;;75.43;28.83;;;;;;;;;;5076611;28;20839;-83
2024/01/11 06:25:46;;;;;;;79.47;29.57;;;;;;;;;;5075048;28;20227;-83
2024/01/11 06:28:13;;;;;;;83.83;29.33;;;;;;;;;;5076663;28;20202;-83
2024/01/11 06:30:40;;;;;;;73.07;29.00;;;;;;;;;;5076568;28;20231;-84
2024/01/11 06:33:08;;;;;;;80.20;30.40;;;;;;;;;;5076674;28;20644;-83
2024/01/11 06:35:35;;;;;;;84.80;30.27;;;;;;;;;;5075335;28;20644;-83
2024/01/11 06:38:02;;;;;;;92.37;31.67;;;;;;;;;;5075244;28;20264;-82
2024/01/11 06:40:29;;;;;;;79.23;29.17;;;;;;;;;;5076792;28;20201;-83
2024/01/11 06:42:57;;;;;;;84.13;30.43;;;;;;;;;;5076319;28;20202;-83
2024/01/11 06:45:24;;;;;;;80.70;30.23;;;;;;;;;;5075273;28;20222;-83
2024/01/11 06:47:51;;;;;;;86.03;30.43;;;;;;;;;;5076526;28;20199;-83
2024/01/11 06:50:18;;;;;;;70.80;27.83;;;;;;;;;;5076111;28;20607;-83
2024/01/11 06:52:46;;;;;;;77.47;28.03;;;;;;;;;;5076243;28;20199;-83
2024/01/11 06:55:13;;;;;;;86.27;29.00;;;;;;;;;;5075935;28;20249;-83
2024/01/11 06:57:40;;;;;;;77.37;30.33;;;;;;;;;;5076204;28;20191;-83
2024/01/11 07:00:07;;;;;;;75.27;30.13;;;;;;;;;;5075868;28;20249;-83
2024/01/11 07:02:35;;;;;;;75.67;29.07;;;;;;;;;;5076053;28;20203;-83
2024/01/11 07:05:02;;;;;;;81.23;31.37;;;;;;;;;;5076058;28;20215;-83
2024/01/11 07:07:30;;;;;;;82.40;31.07;;;;;;;;;;5075044;28;20188;-83
2024/01/11 07:09:57;;;;;;;85.83;29.00;;;;;;;;;;5075917;28;20191;-83
2024/01/11 07:12:25;;;;;;;69.53;25.23;;;;;;;;;;5076003;28;20204;-83
2024/01/11 07:14:52;;;;;;;71.17;28.60;;;;;;;;;;5076177;28;20198;-83
2024/01/11 07:17:19;;;;;;;64.87;24.60;;;;;;;;;;5076357;28;20206;-83
2024/01/11 07:19:46;;;;;;;74.77;28.47;;;;;;;;;;5074462;28;20206;-83
2024/01/11 07:22:14;;;;;;;55.93;23.40;;;;;;;;;;5074034;28;20208;-83
2024/01/11 07:24:41;;;;;;;79.20;29.07;;;;;;;;;;5075778;28;20224;-83
2024/01/11 07:27:08;;;;;;;78.83;28.30;;;;;;;;;;5075126;28;20203;-83
2024/01/11 07:29:35;;;;;;;89.50;35.00;;;;;;;;;;5075999;28;20196;-83
2024/01/11 07:32:03;;;;;;;72.50;30.10;;;;;;;;;;5075364;28;20675;-83
2024/01/11 07:34:32;;;;;;;86.97;33.23;;;;;;;;;;5075576;28;20633;-83
2024/01/11 07:37:00;;;;;;;62.10;24.53;;;;;;;;;;5058110;28;20195;-83
2024/01/11 07:39:27;;;;;;;66.53;25.83;;;;;;;;;;5075386;28;20199;-83
2024/01/11 07:41:54;;;;;;;74.17;27.83;;;;;;;;;;5075328;28;20195;-84
2024/01/11 07:44:21;;;;;;;64.87;26.13;;;;;;;;;;5075184;28;20219;-83
2024/01/11 07:46:48;;;;;;;67.47;26.83;;;;;;;;;;5073959;28;20245;-83
2024/01/11 07:49:20;;;;;;;77.20;28.70;;;;;;;;;;5074957;28;20290;-83
2024/01/11 07:51:49;;;;;;;76.13;27.10;;;;;;;;;;5074346;28;20253;-83
2024/01/11 07:54:16;;;;;;;73.77;26.53;;;;;;;;;;5074768;28;20270;-83
2024/01/11 07:56:43;;;;;;;66.60;24.80;;;;;;;;;;5075606;28;20644;-83
2024/01/11 07:59:14;;;;;;;43.93;19.07;;;;;;;;;;5074911;28;20246;-83
2024/01/11 08:01:42;;;;;;;61.33;23.83;;;;;;;;;;5074926;28;20175;-83
2024/01/11 08:04:09;;;;;;;63.10;24.80;;;;;;;;;;5073559;28;20188;-83
2024/01/11 08:06:37;;;;;;;72.87;25.80;;;;;;;;;;5074786;28;20210;-83
2024/01/11 08:09:05;;;;;;;69.47;25.97;;;;;;;;;;5073595;28;20195;-83
2024/01/11 08:11:32;;;;;;;45.53;19.50;;;;;;;;;;5074615;28;20192;-83
2024/01/11 08:14:05;;;;;;;63.03;23.80;;;;;;;;;;5073525;28;20198;-83
2024/01/11 08:16:33;;;;;;;64.00;24.53;;;;;;;;;;5075459;28;20200;-84
2024/01/11 08:19:03;;;;;;;65.77;26.37;;;;;;;;;;5074532;28;20199;-83
2024/01/11 08:21:31;;;;;;;65.47;24.70;;;;;;;;;;5075217;28;20175;-84
2024/01/11 08:23:58;;;;;;;61.20;24.80;;;;;;;;;;5074776;28;20278;-83
2024/01/11 08:26:32;;;;;;;75.13;25.33;;;;;;;;;;5074822;28;20206;-84
2024/01/11 08:28:59;;;;;;;71.43;27.40;;;;;;;;;;5074694;28;20195;-84
2024/01/11 08:31:26;;;;;;;61.30;24.50;;;;;;;;;;5073679;28;20199;-84
2024/01/11 08:33:53;;;;;;;51.20;20.43;;;;;;;;;;5074824;28;20199;-84
2024/01/11 08:36:21;;;;;;;58.37;22.83;;;;;;;;;;5075854;28;20235;-83
2024/01/11 08:38:49;;;;;;;66.87;25.90;;;;;;;;;;5076529;28;20198;-84
2024/01/11 08:41:16;;;;;;;62.77;26.40;;;;;;;;;;5078891;28;20212;-84
2024/01/11 08:43:44;;;;;;;65.60;25.60;;;;;;;;;;5074176;28;20198;-83
2024/01/11 08:46:11;;;;;;;70.90;28.03;;;;;;;;;;5073309;28;20211;-83
2024/01/11 08:48:38;;;;;;;56.87;22.40;;;;;;;;;;5074232;28;20214;-83
2024/01/11 08:51:06;;;;;;;80.10;26.20;;;;;;;;;;5073562;28;20656;-83
2024/01/11 08:53:33;;;;;;;65.13;25.33;;;;;;;;;;5073775;28;20191;-84
2024/01/11 08:56:01;;;;;;;72.87;29.00;;;;;;;;;;5073176;28;20195;-84
2024/01/11 08:58:28;;;;;;;75.70;28.87;;;;;;;;;;5073253;28;20207;-83
2024/01/11 09:00:55;;;;;;;74.70;26.87;;;;;;;;;;5074420;28;20545;-83
2024/01/11 09:03:22;;;;;;;69.67;29.17;;;;;;;;;;5074094;28;20199;-83
2024/01/11 09:05:50;;;;;;;50.57;21.13;;;;;;;;;;5074849;28;20804;-84
2024/01/11 09:08:17;;;;;;;75.67;28.97;;;;;;;;;;5073466;28;20268;-84
2024/01/11 09:10:44;;;;;;;62.87;24.77;;;;;;;;;;5073996;28;20200;-83
2024/01/11 09:13:11;;;;;;;59.77;23.33;;;;;;;;;;5073409;28;20199;-83
2024/01/11 09:15:41;;;;;;;59.07;22.23;;;;;;;;;;5073704;28;20196;-84
2024/01/11 09:18:08;;;;;;;61.83;23.70;;;;;;;;;;5073855;28;20560;-84
2024/01/11 09:20:37;;;;;;;72.57;27.27;;;;;;;;;;5073521;28;20718;-83
2024/01/11 09:23:04;;;;;;;68.10;25.10;;;;;;;;;;5073878;28;20885;-83
2024/01/11 09:25:32;;;;;;;80.60;26.80;;;;;;;;;;5073733;28;20215;-84
2024/01/11 09:27:59;;;;;;;77.83;28.67;;;;;;;;;;5072479;28;20782;-84
2024/01/11 09:30:27;;;;;;;66.90;26.63;;;;;;;;;;5073639;28;20640;-84
2024/01/11 09:32:54;;;;;;;70.53;27.80;;;;;;;;;;5073592;28;20202;-84
2024/01/11 09:35:23;;;;;;;56.90;23.03;;;;;;;;;;5073392;28;20231;-84
2024/01/11 09:37:50;;;;;;;82.30;31.13;;;;;;;;;;5074061;28;20204;-84
2024/01/11 09:40:18;;;;;;;76.63;27.50;;;;;;;;;;5073882;28;20252;-83
2024/01/11 09:42:45;;;;;;;75.67;29.23;;;;;;;;;;5056105;28;20217;-83
2024/01/11 09:45:15;;;;;;;68.70;26.50;;;;;;;;;;5071856;28;20219;-84
2024/01/11 09:47:46;;;;;;;70.97;27.37;;;;;;;;;;5072381;28;20223;-84
2024/01/11 09:50:17;;;;;;;86.70;29.13;;;;;;;;;;5073383;28;20210;-84
2024/01/11 09:52:49;;;;;;;81.13;27.60;;;;;;;;;;5077578;28;20176;-84
2024/01/11 09:55:18;;;;;;;68.07;25.00;;;;;;;;;;5076194;28;20294;-84
2024/01/11 09:57:47;;;;;;;71.30;26.33;;;;;;;;;;5076361;28;20195;-84
2024/01/11 10:00:19;;;;;;;76.83;27.67;;;;;;;;;;5059701;28;20633;-83
2024/01/11 10:02:46;;;;;;;72.90;27.07;;;;;;;;;;5077625;28;20625;-84
2024/01/11 10:05:16;;;;;;;100.50;39.33;;;;;;;;;;5077001;28;20241;-84
2024/01/11 10:07:43;;;;;;;101.60;37.83;;;;;;;;;;5076094;28;20278;-84
2024/01/11 10:10:10;;;;;;;116.70;43.27;;;;;;;;;;5077231;28;20183;-84
2024/01/11 10:12:38;;;;;;;118.23;46.37;;;;;;;;;;5076056;28;20675;-83
2024/01/11 10:15:09;;;;;;;96.20;35.73;;;;;;;;;;5075673;28;20191;-83
2024/01/11 10:17:41;;;;;;;93.00;33.23;;;;;;;;;;5059905;28;20332;-83
2024/01/11 10:20:10;;;;;;;74.43;27.97;;;;;;;;;;5075768;28;20198;-84
2024/01/11 10:22:41;;;;;;;70.27;27.53;;;;;;;;;;5075623;28;20203;-84
2024/01/11 10:25:14;;;;;;;75.33;27.77;;;;;;;;;;5059281;28;20553;-83
2024/01/11 10:27:45;;;;;;;62.47;18.60;;;;;;;;;;5075756;28;20176;-84
2024/01/11 10:30:16;;;;;;;75.20;26.13;;;;;;;;;;5059428;28;20188;-84
2024/01/11 10:32:44;;;;;;;65.50;24.70;;;;;;;;;;5075509;28;20582;-83
2024/01/11 10:35:11;;;;;;;77.77;25.60;;;;;;;;;;5076399;28;20227;-84
2024/01/11 10:37:39;;;;;;;78.40;24.27;;;;;;;;;;5075532;28;20536;-84
2024/01/11 10:40:14;;;;;;;67.10;22.27;;;;;;;;;;5075145;28;20188;-84
2024/01/11 10:42:45;;;;;;;72.80;24.90;;;;;;;;;;5076052;28;20175;-84
2024/01/11 10:45:17;;;;;;;76.13;24.03;;;;;;;;;;5074928;28;20201;-83
2024/01/11 10:48:23;;;;;;;78.40;26.33;;;;;;;;;;5075342;28;20722;-84
2024/01/11 10:50:54;;;;;;;65.87;23.83;;;;;;;;;;5072629;28;20207;-84
2024/01/11 10:53:32;;;;;;;79.00;24.87;;;;;;;;;;5058570;28;20175;-83
2024/01/11 10:56:00;;;;;;;65.53;23.37;;;;;;;;;;5058380;28;20229;-84
2024/01/11 10:58:28;;;;;;;71.13;23.27;;;;;;;;;;5076467;28;20266;-84
2024/01/11 11:00:56;;;;;;;70.17;23.80;;;;;;;;;;5059557;28;20192;-84
2024/01/11 11:03:26;;;;;;;67.00;23.97;;;;;;;;;;5077634;28;20205;-84
2024/01/11 11:05:55;;;;;;;69.03;22.17;;;;;;;;;;5080125;28;20285;-84
2024/01/11 11:08:24;;;;;;;63.50;22.07;;;;;;;;;;5074693;28;20288;-84
2024/01/11 11:10:58;;;;;;;64.03;23.30;;;;;;;;;;5075895;28;20200;-84
2024/01/11 11:13:26;;;;;;;66.30;23.17;;;;;;;;;;5075753;28;20270;-84
2024/01/11 11:15:54;;;;;;;55.83;20.17;;;;;;;;;;5074282;28;20204;-84
2024/01/11 11:18:23;;;;;;;116.57;35.20;;;;;;;;;;5076306;28;20202;-84
2024/01/11 11:20:51;;;;;;;96.00;28.87;;;;;;;;;;5074780;28;20246;-84
2024/01/11 11:23:18;;;;;;;122.63;33.60;;;;;;;;;;5074873;28;20196;-84
2024/01/11 11:25:47;;;;;;;47.47;19.87;;;;;;;;;;5075469;28;20222;-84
2024/01/11 11:28:18;;;;;;;43.47;18.00;;;;;;;;;;5074345;28;20278;-84
2024/01/11 11:30:49;;;;;;;55.40;21.13;;;;;;;;;;5075813;28;20184;-83
2024/01/11 11:33:21;;;;;;;57.90;20.23;;;;;;;;;;5075896;28;20223;-84
2024/01/11 11:35:53;;;;;;;55.47;19.80;;;;;;;;;;5074914;28;20241;-84
2024/01/11 11:38:22;;;;;;;50.20;19.53;;;;;;;;;;5074734;28;20172;-84
2024/01/11 11:40:52;;;;;;;43.00;17.13;;;;;;;;;;5075419;28;20675;-84
2024/01/11 11:43:21;;;;;;;40.30;16.30;;;;;;;;;;5075304;28;20199;-84
2024/01/11 11:45:49;;;;;;;56.30;20.43;;;;;;;;;;5074548;28;20215;-84
2024/01/11 11:48:29;;;;;;;49.93;20.87;;;;;;;;;;5073720;28;20187;-84
2024/01/11 11:51:07;;;;;;;47.00;18.40;;;;;;;;;;5075278;28;20629;-84
2024/01/11 11:53:35;;;;;;;46.53;19.63;;;;;;;;;;5074452;28;20172;-84
2024/01/11 11:56:03;;;;;;;55.17;21.23;;;;;;;;;;5057295;28;20195;-84
2024/01/11 11:58:31;;;;;;;43.07;17.03;;;;;;;;;;5073919;28;20219;-83
2024/01/11 12:01:00;;;;;;;56.50;19.10;;;;;;;;;;5073738;28;20221;-84
2024/01/11 12:03:30;;;;;;;57.23;19.60;;;;;;;;;;5073521;28;20644;-84
2024/01/11 12:05:58;;;;;;;50.03;19.60;;;;;;;;;;5073520;28;20211;-84
2024/01/11 12:08:27;;;;;;;52.20;19.50;;;;;;;;;;5073731;28;20198;-84
2024/01/11 12:10:54;;;;;;;51.27;20.07;;;;;;;;;;5074418;28;20218;-84
2024/01/11 12:13:22;;;;;;;53.67;20.17;;;;;;;;;;5074069;28;20282;-83
2024/01/11 12:15:49;;;;;;;45.10;18.60;;;;;;;;;;5073374;28;20196;-83
2024/01/11 12:18:16;;;;;;;70.03;23.17;;;;;;;;;;5073480;28;20191;-84
2024/01/11 12:20:44;;;;;;;38.37;15.70;;;;;;;;;;5073092;28;20214;-83
2024/01/11 12:23:13;;;;;;;48.23;17.80;;;;;;;;;;5073167;28;20621;-84
2024/01/11 12:25:41;;;;;;;50.63;19.40;;;;;;;;;;5075046;28;20227;-83
2024/01/11 12:28:08;;;;;;;45.77;17.67;;;;;;;;;;5072697;28;20294;-84
2024/01/11 12:30:35;;;;;;;45.07;18.63;;;;;;;;;;5072965;28;20195;-83
2024/01/11 12:33:03;;;;;;;50.77;18.23;;;;;;;;;;5074147;28;20195;-83
2024/01/11 12:35:31;;;;;;;39.47;17.17;;;;;;;;;;5056237;28;20231;-84
2024/01/11 12:37:59;;;;;;;53.10;19.70;;;;;;;;;;5056520;28;20264;-83
2024/01/11 12:40:27;;;;;;;46.63;19.60;;;;;;;;;;5056571;28;20222;-84
2024/01/11 12:42:54;;;;;;;44.03;18.70;;;;;;;;;;5072847;28;20199;-83
2024/01/11 12:45:21;;;;;;;43.73;18.80;;;;;;;;;;5072334;28;20187;-84
2024/01/11 12:47:48;;;;;;;49.50;20.70;;;;;;;;;;5072736;28;20678;-83
2024/01/11 12:50:16;;;;;;;56.67;21.53;;;;;;;;;;5074391;28;20606;-84
2024/01/11 12:52:43;;;;;;;43.13;16.03;;;;;;;;;;5074152;28;20260;-84
2024/01/11 12:55:20;;;;;;;50.57;20.27;;;;;;;;;;5074292;28;20641;-83
2024/01/11 12:57:48;;;;;;;52.20;20.97;;;;;;;;;;5072401;28;20249;-84
2024/01/11 13:00:16;;;;;;;49.40;20.70;;;;;;;;;;5072612;28;20455;-84
2024/01/11 13:02:46;;;;;;;36.53;13.00;;;;;;;;;;5072734;28;20238;-84
2024/01/11 13:05:14;;;;;;;27.83;12.97;;;;;;;;;;5072570;28;20597;-83
2024/01/11 13:07:41;;;;;;;35.27;16.13;;;;;;;;;;5074056;28;20257;-83
2024/01/11 13:10:08;;;;;;;47.77;18.00;;;;;;;;;;5073639;28;20202;-84
2024/01/11 13:12:35;;;;;;;31.73;14.23;;;;;;;;;;5072674;28;20549;-83
2024/01/11 13:15:04;;;;;;;31.17;13.93;;;;;;;;;;5073345;28;20210;-84
2024/01/11 13:17:31;;;;;;;39.57;15.97;;;;;;;;;;5073514;28;20222;-83
2024/01/11 13:19:59;;;;;;;42.97;18.63;;;;;;;;;;5073714;28;20553;-84
2024/01/11 13:22:27;;;;;;;41.80;18.57;;;;;;;;;;5072830;28;20191;-83
2024/01/11 13:24:54;;;;;;;43.67;17.73;;;;;;;;;;5074516;28;20207;-83
2024/01/11 13:27:21;;;;;;;34.73;14.47;;;;;;;;;;5074674;28;20215;-84
2024/01/11 13:29:48;;;;;;;41.67;18.17;;;;;;;;;;5078680;28;20196;-84
2024/01/11 13:32:15;;;;;;;42.57;16.60;;;;;;;;;;5073969;28;20196;-83
2024/01/11 13:34:43;;;;;;;48.87;19.20;;;;;;;;;;5073486;28;20210;-84
2024/01/11 13:37:11;;;;;;;43.47;19.23;;;;;;;;;;5070465;28;20582;-84
2024/01/11 13:39:38;;;;;;;39.80;17.47;;;;;;;;;;5072927;28;20231;-84
2024/01/11 13:42:09;;;;;;;51.37;20.47;;;;;;;;;;5073258;28;20243;-84
2024/01/11 13:44:38;;;;;;;48.10;20.03;;;;;;;;;;5073394;28;20223;-84
2024/01/11 13:47:05;;;;;;;42.37;19.07;;;;;;;;;;5072469;28;20829;-83
2024/01/11 13:49:34;;;;;;;42.90;17.50;;;;;;;;;;5072145;28;20223;-83
2024/01/11 13:52:01;;;;;;;34.70;15.43;;;;;;;;;;5072397;28;20281;-84
2024/01/11 13:54:29;;;;;;;42.53;16.73;;;;;;;;;;5056714;28;20245;-84
2024/01/11 13:56:56;;;;;;;38.43;16.30;;;;;;;;;;5075645;28;20234;-83
2024/01/11 13:59:23;;;;;;;65.80;24.67;;;;;;;;;;5076706;28;20224;-83
2024/01/11 14:01:51;;;;;;;45.60;19.43;;;;;;;;;;5074334;28;20227;-83
2024/01/11 14:04:18;;;;;;;49.90;20.53;;;;;;;;;;5077054;28;20215;-83
2024/01/11 14:06:45;;;;;;;54.33;22.50;;;;;;;;;;5073238;28;20231;-83
2024/01/11 14:09:14;;;;;;;58.20;22.97;;;;;;;;;;5067742;28;20211;-83
2024/01/11 14:11:41;;;;;;;61.20;23.77;;;;;;;;;;5072207;28;20277;-83
2024/01/11 14:14:08;;;;;;;69.83;28.77;;;;;;;;;;5072572;28;20261;-83
2024/01/11 14:16:35;;;;;;;50.83;21.13;;;;;;;;;;5072464;28;20235;-84
2024/01/11 14:19:02;;;;;;;50.07;21.93;;;;;;;;;;5072838;28;20215;-84
2024/01/11 14:21:30;;;;;;;56.60;23.47;;;;;;;;;;5052618;28;20238;-83